Time;durP1;ratioP1;P1;durP2;ratioP2;P2;SDS_P1;SDS_P2;PMS_P1;PMS_P2;Temp;Humidity;BMP_temperature;BMP_pressure;BME280_temperature;BME280_humidity;BME280_pressure;Samples;Min_cycle;Max_cycle;Signal;HPM_P1;HPM_P2
2021/04/03 00:02:04;;;;;;;21.40;8.57;;;13.00;99.90;;;;;;5016180;28;20049;-65
2021/04/03 00:04:30;;;;;;;15.02;6.63;;;12.80;99.90;;;;;;5013166;28;20030;-64
2021/04/03 00:06:55;;;;;;;11.82;7.05;;;13.00;99.90;;;;;;5016206;28;20053;-64
2021/04/03 00:09:21;;;;;;;15.82;7.15;;;12.60;99.90;;;;;;5005505;28;20060;-64
2021/04/03 00:11:47;;;;;;;12.20;6.65;;;12.70;99.90;;;;;;5025632;28;20030;-64
2021/04/03 00:14:12;;;;;;;9.68;6.80;;;12.90;99.90;;;;;;5014260;28;20113;-64
2021/04/03 00:16:38;;;;;;;7.90;6.57;;;12.80;99.90;;;;;;5025667;28;20518;-64
2021/04/03 00:19:04;;;;;;;8.32;6.30;;;12.90;99.90;;;;;;5013046;28;20578;-64
2021/04/03 00:21:29;;;;;;;10.02;6.65;;;12.90;99.90;;;;;;5024253;28;20032;-64
2021/04/03 00:23:55;;;;;;;10.65;7.30;;;12.80;99.90;;;;;;5011898;28;20026;-64
2021/04/03 00:26:21;;;;;;;9.75;6.47;;;12.80;99.90;;;;;;5025078;28;20128;-64
2021/04/03 00:28:48;;;;;;;10.32;6.38;;;12.70;99.90;;;;;;5009801;28;20076;-64
2021/04/03 00:31:14;;;;;;;11.82;6.65;;;12.60;99.90;;;;;;5024659;28;20121;-64
2021/04/03 00:33:40;;;;;;;19.65;8.20;;;12.40;99.90;;;;;;5006037;28;20113;-64
2021/04/03 00:36:06;;;;;;;19.75;9.23;;;12.10;99.90;;;;;;5021712;28;20033;-64
2021/04/03 00:38:31;;;;;;;11.98;8.57;;;12.20;99.90;;;;;;5008346;28;20038;-65
2021/04/03 00:40:57;;;;;;;18.58;8.32;;;12.30;99.90;;;;;;5011769;28;20123;-64
2021/04/03 00:43:23;;;;;;;16.55;7.57;;;12.10;99.90;;;;;;5002047;28;20028;-64
2021/04/03 00:45:49;;;;;;;14.98;6.78;;;11.90;99.90;;;;;;5018157;28;20048;-64
2021/04/03 00:48:17;;;;;;;19.20;7.45;;;12.00;99.90;;;;;;5006205;28;20096;-64
2021/04/03 00:50:46;;;;;;;12.73;6.72;;;12.20;99.90;;;;;;5028166;28;20037;-64
2021/04/03 00:53:14;;;;;;;14.38;6.75;;;12.10;99.90;;;;;;5017639;28;20056;-64
2021/04/03 00:55:40;;;;;;;16.50;7.43;;;11.90;99.90;;;;;;5027935;28;20033;-64
2021/04/03 00:58:07;;;;;;;16.40;6.68;;;12.20;99.90;;;;;;5016909;28;20057;-64
2021/04/03 01:00:32;;;;;;;8.57;6.65;;;12.30;99.90;;;;;;5024363;28;20034;-64
2021/04/03 01:02:58;;;;;;;13.45;7.05;;;12.10;99.90;;;;;;5013964;28;20017;-64
2021/04/03 01:05:26;;;;;;;15.93;7.03;;;12.00;99.90;;;;;;5019416;28;20033;-64
2021/04/03 01:07:52;;;;;;;10.77;6.47;;;11.90;99.90;;;;;;5009984;28;20026;-64
2021/04/03 01:10:21;;;;;;;17.88;9.05;;;11.90;99.90;;;;;;5020063;28;20399;-64
2021/04/03 01:12:56;;;;;;;32.30;14.18;;;11.80;99.90;;;;;;5006894;28;20145;-64
2021/04/03 01:15:30;;;;;;;27.33;15.90;;;11.50;99.90;;;;;;5021621;28;20090;-64
2021/04/03 01:18:24;;;;;;;28.27;13.82;;;11.50;99.90;;;;;;5014188;28;20057;-64
2021/04/03 01:21:00;;;;;;;25.92;12.68;;;11.50;99.90;;;;;;5003759;28;20029;-64
2021/04/03 01:23:40;;;;;;;19.17;11.57;;;11.60;99.90;;;;;;5008797;28;20046;-64
2021/04/03 01:26:34;;;;;;;17.88;9.13;;;11.50;99.90;;;;;;5025428;28;20029;-64
2021/04/03 01:29:12;;;;;;;20.73;8.65;;;11.40;99.90;;;;;;5011755;28;20034;-64
2021/04/03 01:31:39;;;;;;;14.30;7.40;;;11.60;99.90;;;;;;5023716;28;20667;-64
2021/04/03 01:34:13;;;;;;;16.98;7.95;;;11.70;99.90;;;;;;5011325;28;20033;-64
2021/04/03 01:36:42;;;;;;;14.35;8.00;;;11.50;99.90;;;;;;5021916;28;20019;-64
2021/04/03 01:39:12;;;;;;;20.63;8.52;;;11.40;99.90;;;;;;5009553;28;20026;-64
2021/04/03 01:41:41;;;;;;;24.92;8.15;;;11.40;99.90;;;;;;5022527;28;20037;-64
2021/04/03 01:44:09;;;;;;;17.10;7.18;;;11.40;99.90;;;;;;5005747;28;20028;-64
2021/04/03 01:46:36;;;;;;;20.10;7.65;;;11.70;99.90;;;;;;5021956;28;20018;-64
2021/04/03 01:49:09;;;;;;;12.23;7.53;;;11.80;99.90;;;;;;5008173;28;20079;-64
2021/04/03 01:51:36;;;;;;;13.15;7.90;;;11.80;99.90;;;;;;5019037;28;20038;-64
2021/04/03 01:54:03;;;;;;;17.67;12.18;;;11.70;99.90;;;;;;5013488;28;20461;-64
2021/04/03 01:56:30;;;;;;;39.28;21.52;;;11.70;99.90;;;;;;5016028;28;20025;-64
2021/04/03 01:58:57;;;;;;;48.65;25.92;;;11.80;99.90;;;;;;5004339;28;20042;-64
2021/04/03 02:01:23;;;;;;;50.20;23.83;;;11.50;99.90;;;;;;5022565;28;20025;-64
2021/04/03 02:03:49;;;;;;;58.28;28.10;;;11.50;99.90;;;;;;5004942;28;20038;-64
2021/04/03 02:06:16;;;;;;;46.80;24.38;;;11.40;99.90;;;;;;5021202;28;20590;-64
2021/04/03 02:08:43;;;;;;;34.80;19.80;;;11.40;99.90;;;;;;5007283;28;20048;-63
2021/04/03 02:11:10;;;;;;;43.92;20.40;;;11.50;99.90;;;;;;5009821;28;20033;-64
2021/04/03 02:13:36;;;;;;;47.97;20.50;;;11.50;99.90;;;;;;4999808;28;20030;-64
2021/04/03 02:16:04;;;;;;;53.25;21.38;;;11.50;99.90;;;;;;5018286;28;20021;-64
2021/04/03 02:18:32;;;;;;;44.05;20.05;;;11.70;99.90;;;;;;5002377;28;20030;-64
2021/04/03 02:21:04;;;;;;;43.22;18.38;;;11.60;99.90;;;;;;5016041;28;20356;-64
2021/04/03 02:23:32;;;;;;;43.88;17.67;;;11.60;99.90;;;;;;5001155;28;20041;-64
2021/04/03 02:25:58;;;;;;;45.17;20.63;;;11.60;99.90;;;;;;5011146;28;20029;-64
2021/04/03 02:28:25;;;;;;;58.50;22.80;;;11.70;99.90;;;;;;5003237;28;20041;-64
2021/04/03 02:30:53;;;;;;;58.17;21.05;;;11.80;99.90;;;;;;4998510;28;20411;-64
2021/04/03 02:33:19;;;;;;;37.95;17.50;;;12.00;99.90;;;;;;4994012;28;20566;-63
2021/04/03 02:35:46;;;;;;;53.33;16.65;;;12.00;99.90;;;;;;5002653;28;20029;-64
2021/04/03 02:38:13;;;;;;;46.03;16.85;;;12.10;99.90;;;;;;4998952;28;20399;-65
2021/04/03 02:40:40;;;;;;;46.42;16.88;;;12.20;99.90;;;;;;5003506;28;20394;-64
2021/04/03 02:43:11;;;;;;;49.95;18.05;;;12.20;99.90;;;;;;5002680;28;20030;-64
2021/04/03 02:45:46;;;;;;;56.85;17.13;;;12.20;99.90;;;;;;5002416;28;20033;-64
2021/04/03 02:48:18;;;;;;;47.60;15.55;;;12.20;99.90;;;;;;5002638;28;20022;-64
2021/04/03 02:50:46;;;;;;;50.80;15.65;;;12.20;99.90;;;;;;5000788;28;20128;-64
2021/04/03 02:53:15;;;;;;;51.22;15.07;;;12.10;99.90;;;;;;5002723;28;20014;-64
2021/04/03 02:55:53;;;;;;;48.28;15.30;;;12.30;99.90;;;;;;5000557;28;20533;-64
2021/04/03 02:58:21;;;;;;;40.50;15.77;;;12.30;99.90;;;;;;5002441;28;20523;-64
2021/04/03 03:00:50;;;;;;;49.35;15.38;;;12.20;99.90;;;;;;4999264;28;20666;-64
2021/04/03 03:03:18;;;;;;;55.65;16.83;;;12.20;99.90;;;;;;5002560;28;20475;-64
2021/04/03 03:05:45;;;;;;;50.80;17.10;;;12.20;99.90;;;;;;4997478;28;20121;-64
2021/04/03 03:08:13;;;;;;;43.97;18.15;;;12.10;99.90;;;;;;5001254;28;20510;-64
2021/04/03 03:10:40;;;;;;;46.30;19.83;;;12.10;99.90;;;;;;5020785;28;20038;-64
2021/04/03 03:13:08;;;;;;;53.20;19.17;;;12.00;99.90;;;;;;5008379;28;20021;-64
2021/04/03 03:15:35;;;;;;;46.03;20.73;;;12.10;99.90;;;;;;5011677;28;20026;-65
2021/04/03 03:18:02;;;;;;;46.97;20.50;;;12.10;99.90;;;;;;5006079;28;20026;-65
2021/04/03 03:20:29;;;;;;;46.90;19.33;;;12.10;99.90;;;;;;5018123;28;20119;-64
2021/04/03 03:22:56;;;;;;;53.33;20.60;;;12.20;99.90;;;;;;5011106;28;20026;-64
2021/04/03 03:25:22;;;;;;;52.72;20.60;;;12.20;99.90;;;;;;5016212;28;20032;-64
2021/04/03 03:27:49;;;;;;;46.05;19.48;;;12.20;99.90;;;;;;5013159;28;20025;-64
2021/04/03 03:30:18;;;;;;;50.70;20.40;;;12.20;99.90;;;;;;5023382;28;20076;-64
2021/04/03 03:32:45;;;;;;;50.72;20.98;;;12.10;99.90;;;;;;5012466;28;20026;-64
2021/04/03 03:35:12;;;;;;;51.17;20.60;;;12.10;99.90;;;;;;5022697;28;20108;-64
2021/04/03 03:37:38;;;;;;;44.83;19.75;;;12.20;99.90;;;;;;5011069;28;20033;-64
2021/04/03 03:40:05;;;;;;;41.00;19.02;;;12.20;99.90;;;;;;5021347;28;20030;-64
2021/04/03 03:42:31;;;;;;;43.63;20.33;;;12.20;99.90;;;;;;5012619;28;20026;-64
2021/04/03 03:44:57;;;;;;;46.17;19.95;;;12.20;99.90;;;;;;5020239;28;20022;-65
2021/04/03 03:47:23;;;;;;;43.65;20.30;;;12.20;99.90;;;;;;5015223;28;20057;-64
2021/04/03 03:49:49;;;;;;;47.85;20.48;;;12.20;99.90;;;;;;5011182;28;20414;-64
2021/04/03 03:52:15;;;;;;;47.35;19.63;;;12.20;99.90;;;;;;5014775;28;20035;-64
2021/04/03 03:54:40;;;;;;;45.20;20.17;;;12.30;99.90;;;;;;4997306;28;20030;-65
2021/04/03 03:57:06;;;;;;;55.17;21.20;;;12.30;99.90;;;;;;5005042;28;20441;-64
2021/04/03 03:59:32;;;;;;;46.42;19.60;;;12.40;99.90;;;;;;4999443;28;20026;-65
2021/04/03 04:01:58;;;;;;;44.67;20.00;;;12.40;99.90;;;;;;5020661;28;20065;-64
2021/04/03 04:04:23;;;;;;;44.53;19.58;;;12.50;99.90;;;;;;5007041;28;20049;-65
2021/04/03 04:06:49;;;;;;;50.95;19.77;;;12.50;99.90;;;;;;5005776;28;20119;-64
2021/04/03 04:09:14;;;;;;;44.28;19.50;;;12.40;99.90;;;;;;4999219;28;20093;-65
2021/04/03 04:11:40;;;;;;;55.60;19.63;;;12.30;99.90;;;;;;5010066;28;20026;-64
2021/04/03 04:14:06;;;;;;;40.50;19.63;;;12.50;99.90;;;;;;4997632;28;20371;-65
2021/04/03 04:16:31;;;;;;;46.80;19.90;;;12.30;99.90;;;;;;5003416;28;20093;-66
2021/04/03 04:18:57;;;;;;;43.30;19.30;;;12.50;99.90;;;;;;4994476;28;20026;-64
2021/04/03 04:21:24;;;;;;;46.42;19.70;;;12.40;99.90;;;;;;5013178;28;20187;-65
2021/04/03 04:23:49;;;;;;;42.88;18.67;;;12.50;99.90;;;;;;5001101;28;20108;-64
2021/04/03 04:26:16;;;;;;;43.47;18.77;;;12.50;99.90;;;;;;5011491;28;20102;-65
2021/04/03 04:28:42;;;;;;;47.58;20.35;;;12.50;99.90;;;;;;5015186;28;20029;-65
2021/04/03 04:31:07;;;;;;;50.25;19.10;;;12.40;99.90;;;;;;5025399;28;20034;-64
2021/04/03 04:33:33;;;;;;;40.88;19.17;;;12.40;99.90;;;;;;5004747;28;20029;-66
2021/04/03 04:35:59;;;;;;;41.70;19.35;;;12.40;99.90;;;;;;5025548;28;20030;-66
2021/04/03 04:38:25;;;;;;;42.70;19.23;;;12.40;99.90;;;;;;4999067;28;20628;-66
2021/04/03 04:40:51;;;;;;;34.97;18.95;;;12.60;99.90;;;;;;5000944;28;20038;-66
2021/04/03 04:43:21;;;;;;;44.45;19.92;;;12.50;99.90;;;;;;5010085;28;20096;-66
2021/04/03 04:45:47;;;;;;;42.97;18.52;;;12.50;99.90;;;;;;5010031;28;20022;-66
2021/04/03 04:48:13;;;;;;;44.88;19.27;;;12.40;99.90;;;;;;5009945;28;20026;-67
2021/04/03 04:50:39;;;;;;;36.75;18.58;;;12.40;99.90;;;;;;5010608;28;20830;-66
2021/04/03 04:53:06;;;;;;;37.33;17.95;;;12.40;99.90;;;;;;5009365;28;20030;-66
2021/04/03 04:55:32;;;;;;;43.85;17.73;;;12.50;99.90;;;;;;5011764;28;20034;-65
2021/04/03 04:57:58;;;;;;;48.95;18.15;;;12.40;99.90;;;;;;4999522;28;20030;-66
2021/04/03 05:00:24;;;;;;;37.03;17.67;;;12.60;99.90;;;;;;4996328;28;20065;-66
2021/04/03 05:02:50;;;;;;;31.02;17.35;;;12.50;99.90;;;;;;5009073;28;20022;-66
2021/04/03 05:05:15;;;;;;;41.20;18.35;;;12.60;99.90;;;;;;5006244;28;20057;-66
2021/04/03 05:07:41;;;;;;;32.72;17.27;;;12.50;99.90;;;;;;5000804;28;20082;-65
2021/04/03 05:10:07;;;;;;;32.90;16.63;;;12.50;99.90;;;;;;5019378;28;20041;-66
2021/04/03 05:12:33;;;;;;;37.40;17.42;;;12.60;99.90;;;;;;5016861;28;20030;-66
2021/04/03 05:14:58;;;;;;;41.67;17.30;;;12.60;99.90;;;;;;5013218;28;20075;-66
2021/04/03 05:17:24;;;;;;;35.88;17.92;;;12.60;99.90;;;;;;5019926;28;20502;-66
2021/04/03 05:19:50;;;;;;;32.60;18.45;;;12.50;99.90;;;;;;5022355;28;20021;-65
2021/04/03 05:22:15;;;;;;;36.17;17.65;;;12.60;99.90;;;;;;5017821;28;20030;-66
2021/04/03 05:24:41;;;;;;;31.10;16.75;;;12.40;99.90;;;;;;5019298;28;20022;-66
2021/04/03 05:27:07;;;;;;;37.13;15.55;;;12.50;99.90;;;;;;5020748;28;20113;-66
2021/04/03 05:29:32;;;;;;;32.10;15.68;;;12.40;99.90;;;;;;5015269;28;20030;-65
2021/04/03 05:31:58;;;;;;;31.13;14.73;;;12.50;99.90;;;;;;5022752;28;20040;-66
2021/04/03 05:34:24;;;;;;;35.90;16.95;;;12.60;99.90;;;;;;5012349;28;20037;-65
2021/04/03 05:36:49;;;;;;;33.72;15.20;;;12.60;99.90;;;;;;5022860;28;20052;-66
2021/04/03 05:39:15;;;;;;;39.13;14.77;;;12.50;99.90;;;;;;5000429;28;20565;-66
2021/04/03 05:41:41;;;;;;;24.85;13.15;;;12.40;99.90;;;;;;5022806;28;20030;-66
2021/04/03 05:44:10;;;;;;;37.13;14.52;;;12.30;99.90;;;;;;5003046;28;20050;-66
2021/04/03 05:46:41;;;;;;;30.58;14.80;;;12.20;99.90;;;;;;5008398;28;20486;-66
2021/04/03 05:49:07;;;;;;;27.70;14.65;;;12.20;99.90;;;;;;4994970;28;20018;-66
2021/04/03 05:51:34;;;;;;;30.85;14.52;;;12.20;99.90;;;;;;5008170;28;20045;-67
2021/04/03 05:54:01;;;;;;;22.98;13.00;;;12.10;99.90;;;;;;5001630;28;20084;-66
2021/04/03 05:56:28;;;;;;;34.38;14.88;;;12.10;99.90;;;;;;5007835;28;20037;-67
2021/04/03 05:58:56;;;;;;;29.92;14.02;;;12.20;99.90;;;;;;4998480;28;20027;-67
2021/04/03 06:01:22;;;;;;;26.40;14.82;;;12.10;99.90;;;;;;5009469;28;20026;-67
2021/04/03 06:03:48;;;;;;;35.08;14.32;;;12.20;99.90;;;;;;5001642;28;20025;-63
2021/04/03 06:06:14;;;;;;;33.65;14.80;;;12.20;99.90;;;;;;5003686;28;20046;-66
2021/04/03 06:08:39;;;;;;;32.28;14.52;;;12.10;99.90;;;;;;5001708;28;20449;-65
2021/04/03 06:11:13;;;;;;;30.40;14.35;;;12.20;99.90;;;;;;5008001;28;20045;-66
2021/04/03 06:13:41;;;;;;;25.92;14.73;;;12.10;99.90;;;;;;5002144;28;20119;-65
2021/04/03 06:16:40;;;;;;;30.00;14.15;;;11.90;99.90;;;;;;5008846;28;20082;-66
2021/04/03 06:19:11;;;;;;;25.80;13.73;;;12.10;99.90;;;;;;5009329;28;20398;-66
2021/04/03 06:21:38;;;;;;;32.20;14.65;;;12.20;99.90;;;;;;4993921;28;20510;-65
2021/04/03 06:24:35;;;;;;;25.02;13.52;;;12.10;99.90;;;;;;5013169;28;20030;-66
2021/04/03 06:27:04;;;;;;;19.40;13.10;;;12.10;99.90;;;;;;5018155;28;20042;-65
2021/04/03 06:29:35;;;;;;;27.08;13.48;;;12.10;99.90;;;;;;5008815;28;20490;-66
2021/04/03 06:32:01;;;;;;;23.17;12.82;;;12.20;99.90;;;;;;5021934;28;20040;-66
2021/04/03 06:34:32;;;;;;;25.65;13.50;;;12.10;99.90;;;;;;5018074;28;20037;-65
2021/04/03 06:36:59;;;;;;;28.60;13.60;;;12.10;99.90;;;;;;5021594;28;20613;-66
2021/04/03 06:39:25;;;;;;;24.10;13.27;;;12.10;99.90;;;;;;5014875;28;20049;-65
2021/04/03 06:41:51;;;;;;;27.20;12.43;;;12.00;99.90;;;;;;5023576;28;20030;-66
2021/04/03 06:44:17;;;;;;;23.45;14.27;;;12.30;99.90;;;;;;5010043;28;20580;-65
2021/04/03 06:46:45;;;;;;;22.30;12.73;;;12.20;99.90;;;;;;5023211;28;20046;-65
2021/04/03 06:49:12;;;;;;;30.35;12.80;;;12.10;99.90;;;;;;5009138;28;20518;-65
2021/04/03 06:51:38;;;;;;;28.20;13.15;;;12.30;99.90;;;;;;5024846;28;20052;-66
2021/04/03 06:54:06;;;;;;;25.55;13.93;;;12.20;99.90;;;;;;5000414;28;20110;-65
2021/04/03 06:56:34;;;;;;;20.30;12.25;;;12.30;99.90;;;;;;5019762;28;20050;-65
2021/04/03 06:59:05;;;;;;;21.50;12.95;;;12.40;99.90;;;;;;4999035;28;20033;-66
2021/04/03 07:01:58;;;;;;;30.15;13.55;;;12.40;99.90;;;;;;5007842;28;20620;-65
2021/04/03 07:04:40;;;;;;;22.13;12.55;;;12.40;99.90;;;;;;4999687;28;20069;-65
2021/04/03 07:07:07;;;;;;;23.83;13.40;;;12.30;99.90;;;;;;5004112;28;20060;-66
2021/04/03 07:09:34;;;;;;;22.52;12.43;;;12.50;99.90;;;;;;4991262;28;20022;-65
2021/04/03 07:12:00;;;;;;;26.40;12.73;;;12.60;99.90;;;;;;5005926;28;20096;-65
2021/04/03 07:14:29;;;;;;;22.95;12.73;;;12.60;99.90;;;;;;4998681;28;20023;-65
2021/04/03 07:16:55;;;;;;;29.42;12.90;;;12.60;99.90;;;;;;5006178;28;20030;-65
2021/04/03 07:19:22;;;;;;;28.50;12.20;;;12.70;99.90;;;;;;4996541;28;20018;-65
2021/04/03 07:21:47;;;;;;;21.00;11.93;;;12.80;99.90;;;;;;5003784;28;20117;-65
2021/04/03 07:24:16;;;;;;;23.88;11.73;;;12.60;99.90;;;;;;4998313;28;20102;-65
2021/04/03 07:26:47;;;;;;;25.10;11.88;;;12.80;99.90;;;;;;5002926;28;20376;-65
2021/04/03 07:29:40;;;;;;;22.08;11.25;;;12.80;99.90;;;;;;4998331;28;20022;-65
2021/04/03 07:32:07;;;;;;;21.92;9.90;;;13.00;99.90;;;;;;5004648;28;20026;-65
2021/04/03 07:34:40;;;;;;;21.35;10.85;;;12.80;99.90;;;;;;5001080;28;20030;-65
2021/04/03 07:37:12;;;;;;;21.48;10.65;;;12.90;99.90;;;;;;5001410;28;20050;-65
2021/04/03 07:39:39;;;;;;;25.23;11.30;;;13.00;99.90;;;;;;4998058;28;20050;-65
2021/04/03 07:42:06;;;;;;;22.80;11.32;;;12.90;99.90;;;;;;5004232;28;20030;-65
2021/04/03 07:44:37;;;;;;;19.42;10.45;;;13.10;99.90;;;;;;4997299;28;20022;-65
2021/04/03 07:47:19;;;;;;;18.02;11.02;;;13.10;99.90;;;;;;5005740;28;20117;-65
2021/04/03 07:49:45;;;;;;;20.55;10.15;;;13.10;99.90;;;;;;4993357;28;20553;-65
2021/04/03 07:52:11;;;;;;;24.92;11.18;;;13.20;99.90;;;;;;5004077;28;20037;-65
2021/04/03 07:54:37;;;;;;;18.58;10.38;;;13.30;99.90;;;;;;5022697;28;20532;-65
2021/04/03 07:57:06;;;;;;;15.63;10.02;;;13.30;99.90;;;;;;5024383;28;20134;-65
2021/04/03 07:59:44;;;;;;;22.52;10.05;;;13.40;99.90;;;;;;5012809;28;20017;-65
2021/04/03 08:02:29;;;;;;;16.58;9.85;;;13.50;99.90;;;;;;5018672;28;20571;-66
2021/04/03 08:04:56;;;;;;;15.35;9.10;;;13.40;99.90;;;;;;5002215;28;20406;-65
2021/04/03 08:07:23;;;;;;;17.27;9.43;;;13.50;99.90;;;;;;5006990;28;20050;-65
2021/04/03 08:09:49;;;;;;;14.43;9.55;;;13.60;99.90;;;;;;5014445;28;20029;-65
2021/04/03 08:12:16;;;;;;;22.63;9.02;;;13.50;99.90;;;;;;5021128;28;20501;-66
2021/04/03 08:14:42;;;;;;;16.02;9.35;;;13.70;99.90;;;;;;5008952;28;20095;-66
2021/04/03 08:17:09;;;;;;;19.33;9.27;;;13.80;99.90;;;;;;5008306;28;20113;-66
2021/04/03 08:19:37;;;;;;;17.30;9.75;;;13.90;99.90;;;;;;4997934;28;20045;-66
2021/04/03 08:22:08;;;;;;;17.75;8.75;;;14.10;99.90;;;;;;5007909;28;20056;-66
2021/04/03 08:24:34;;;;;;;10.95;8.20;;;14.00;99.90;;;;;;5009125;28;20525;-66
2021/04/03 08:27:00;;;;;;;18.20;8.75;;;14.00;99.90;;;;;;5006235;28;20030;-67
2021/04/03 08:29:36;;;;;;;15.82;9.05;;;13.90;99.90;;;;;;5005436;28;20097;-66
2021/04/03 08:32:04;;;;;;;15.43;8.27;;;14.00;99.90;;;;;;5007535;28;20138;-67
2021/04/03 08:34:29;;;;;;;14.15;7.78;;;14.10;99.90;;;;;;5004347;28;20382;-64
2021/04/03 08:36:56;;;;;;;17.75;8.48;;;13.80;99.90;;;;;;5008686;28;20117;-64
2021/04/03 08:39:24;;;;;;;17.52;9.10;;;14.00;99.90;;;;;;4995216;28;20110;-64
2021/04/03 08:41:52;;;;;;;16.90;8.55;;;13.90;99.90;;;;;;5008847;28;20570;-64
2021/04/03 08:44:23;;;;;;;10.80;8.05;;;14.00;99.90;;;;;;5007559;28;20036;-64
2021/04/03 08:46:51;;;;;;;14.65;8.73;;;14.00;99.90;;;;;;5009388;28;20116;-64
2021/04/03 08:49:24;;;;;;;9.75;7.18;;;14.00;99.90;;;;;;5007227;28;20022;-64
2021/04/03 08:51:50;;;;;;;14.00;8.00;;;14.30;99.90;;;;;;4995965;28;20101;-64
2021/04/03 08:54:17;;;;;;;12.45;8.77;;;14.20;99.90;;;;;;5006512;28;20032;-65
2021/04/03 08:56:43;;;;;;;16.45;7.90;;;14.30;99.90;;;;;;5009126;28;20020;-64
2021/04/03 08:59:13;;;;;;;14.98;8.75;;;14.40;99.90;;;;;;5012669;28;20100;-64
2021/04/03 09:01:43;;;;;;;11.57;8.10;;;14.50;99.90;;;;;;5024352;28;20029;-64
2021/04/03 09:04:09;;;;;;;12.00;9.15;;;14.50;99.90;;;;;;5005247;28;20489;-66
2021/04/03 09:06:57;;;;;;;15.57;8.70;;;14.90;99.90;;;;;;5019775;28;20045;-66
2021/04/03 09:09:25;;;;;;;20.63;9.18;;;14.80;99.90;;;;;;5012103;28;20478;-65
2021/04/03 09:11:59;;;;;;;10.00;7.82;;;14.80;99.90;;;;;;5009669;28;20046;-65
2021/04/03 09:14:29;;;;;;;17.42;8.48;;;15.00;99.90;;;;;;5007752;28;20022;-65
2021/04/03 09:16:56;;;;;;;13.10;9.18;;;14.90;99.90;;;;;;5015435;28;20034;-65
2021/04/03 09:19:31;;;;;;;19.83;9.20;;;14.80;99.90;;;;;;5006196;28;20032;-65
2021/04/03 09:21:58;;;;;;;21.00;8.70;;;14.90;99.90;;;;;;5007804;28;20014;-65
2021/04/03 09:24:39;;;;;;;15.20;8.40;;;15.00;99.90;;;;;;5006204;28;20039;-65
2021/04/03 09:27:15;;;;;;;16.98;8.75;;;15.40;99.90;;;;;;5008526;28;20048;-64
2021/04/03 09:29:42;;;;;;;18.08;8.88;;;15.40;99.90;;;;;;5016135;28;20536;-65
2021/04/03 09:32:12;;;;;;;17.00;8.45;;;15.50;99.90;;;;;;5019143;28;20435;-64
2021/04/03 09:34:38;;;;;;;19.48;9.27;;;15.40;99.90;;;;;;5010215;28;20026;-64
2021/04/03 09:37:30;;;;;;;24.17;8.93;;;15.60;99.90;;;;;;5006487;28;20022;-64
2021/04/03 09:39:56;;;;;;;16.10;8.77;;;15.70;99.90;;;;;;5007375;28;20491;-65
2021/04/03 09:42:25;;;;;;;14.95;8.82;;;15.60;99.90;;;;;;5008050;28;20513;-65
2021/04/03 09:44:53;;;;;;;13.65;7.88;;;15.60;99.90;;;;;;5005685;28;20029;-64
2021/04/03 09:47:19;;;;;;;13.38;8.38;;;16.00;99.90;;;;;;5009126;28;20028;-65
2021/04/03 09:49:45;;;;;;;16.25;7.80;;;15.70;99.90;;;;;;5004931;28;20380;-64
2021/04/03 09:52:13;;;;;;;12.73;8.63;;;15.50;99.90;;;;;;5004383;28;20386;-65
2021/04/03 09:54:40;;;;;;;15.65;8.13;;;16.00;99.90;;;;;;5006358;28;20056;-65
2021/04/03 09:57:06;;;;;;;16.45;8.30;;;16.60;99.90;;;;;;5007296;28;20132;-62
2021/04/03 09:59:32;;;;;;;16.77;9.00;;;16.50;99.90;;;;;;5007652;28;20096;-65
2021/04/03 10:01:59;;;;;;;15.55;7.53;;;16.40;99.90;;;;;;5007956;28;20491;-65
2021/04/03 10:04:25;;;;;;;18.30;8.52;;;16.10;99.90;;;;;;5014822;28;20498;-65
2021/04/03 10:06:51;;;;;;;9.20;8.18;;;16.50;99.90;;;;;;5023169;28;20042;-65
2021/04/03 10:09:18;;;;;;;15.02;8.18;;;16.60;99.90;;;;;;5005225;28;20104;-66
2021/04/03 10:11:44;;;;;;;15.18;8.50;;;16.70;99.90;;;;;;5021199;28;20037;-64
2021/04/03 10:14:10;;;;;;;13.07;7.95;;;16.80;99.90;;;;;;5004083;28;20387;-65
2021/04/03 10:16:36;;;;;;;18.00;8.18;;;17.10;99.90;;;;;;5027671;28;20497;-65
2021/04/03 10:19:02;;;;;;;19.92;8.70;;;16.90;99.90;;;;;;5001861;28;20027;-65
2021/04/03 10:21:28;;;;;;;17.30;8.40;;;17.00;99.90;;;;;;5017254;28;20021;-65
2021/04/03 10:23:54;;;;;;;19.75;8.05;;;17.30;99.90;;;;;;5003935;28;20029;-65
2021/04/03 10:26:20;;;;;;;12.02;8.25;;;17.40;99.90;;;;;;5023811;28;20087;-65
2021/04/03 10:28:45;;;;;;;15.35;8.40;;;17.40;99.90;;;;;;5002855;28;20030;-65
2021/04/03 10:31:11;;;;;;;13.02;8.18;;;17.40;99.90;;;;;;5008308;28;20029;-65
2021/04/03 10:33:38;;;;;;;15.40;8.32;;;17.70;99.90;;;;;;5001270;28;20776;-65
2021/04/03 10:36:07;;;;;;;11.30;7.95;;;17.70;99.90;;;;;;5007529;28;20623;-66
2021/04/03 10:38:34;;;;;;;15.52;7.60;;;17.90;99.90;;;;;;4998310;28;20030;-65
2021/04/03 10:41:01;;;;;;;14.05;8.18;;;18.10;99.90;;;;;;5008178;28;20030;-67
2021/04/03 10:43:26;;;;;;;10.95;7.63;;;18.10;99.90;;;;;;5002785;28;20100;-66
2021/04/03 10:45:52;;;;;;;11.70;6.72;;;17.70;99.90;;;;;;5009032;28;20065;-66
2021/04/03 10:48:18;;;;;;;7.50;5.88;;;18.10;99.90;;;;;;5002953;28;20034;-66
2021/04/03 10:50:44;;;;;;;11.40;6.10;;;17.70;99.90;;;;;;5008429;28;20048;-66
2021/04/03 10:53:10;;;;;;;12.68;5.72;;;17.70;99.90;;;;;;5001131;28;20030;-67
2021/04/03 10:55:37;;;;;;;10.05;5.35;;;17.90;99.90;;;;;;5009084;28;20080;-65
2021/04/03 10:58:02;;;;;;;9.15;6.07;;;18.20;99.90;;;;;;4996352;28;20026;-65
2021/04/03 11:00:28;;;;;;;15.48;6.72;;;18.00;99.90;;;;;;5006901;28;20022;-67
2021/04/03 11:02:55;;;;;;;17.55;6.40;;;18.20;99.90;;;;;;5004530;28;20029;-66
2021/04/03 11:05:22;;;;;;;12.95;6.68;;;18.40;99.90;;;;;;5003817;28;20390;-66
2021/04/03 11:07:48;;;;;;;11.80;5.75;;;18.30;99.90;;;;;;5002505;28;20523;-66
2021/04/03 11:10:14;;;;;;;13.63;6.03;;;18.50;99.90;;;;;;5005854;28;20119;-66
2021/04/03 11:12:40;;;;;;;14.55;6.43;;;18.60;99.90;;;;;;5003355;28;20054;-66
2021/04/03 11:15:07;;;;;;;13.13;5.90;;;18.60;99.90;;;;;;5006176;28;20101;-65
2021/04/03 11:17:33;;;;;;;8.43;5.80;;;18.30;99.90;;;;;;5003940;28;20026;-67
2021/04/03 11:19:58;;;;;;;11.02;5.95;;;18.80;99.50;;;;;;5011260;28;20077;-65
2021/04/03 11:22:24;;;;;;;11.38;5.60;;;18.60;99.50;;;;;;4993912;28;20089;-66
2021/04/03 11:24:51;;;;;;;13.35;5.82;;;19.40;99.80;;;;;;5011438;28;20022;-65
2021/04/03 11:27:16;;;;;;;8.45;5.97;;;18.90;98.50;;;;;;5007878;28;20113;-66
2021/04/03 11:29:42;;;;;;;12.40;6.35;;;19.10;99.10;;;;;;5005896;28;20109;-65
2021/04/03 11:32:08;;;;;;;8.02;5.68;;;19.20;98.90;;;;;;5010044;28;20517;-65
2021/04/03 11:34:34;;;;;;;7.97;6.22;;;19.40;99.20;;;;;;5009351;28;20243;-65
2021/04/03 11:36:59;;;;;;;10.27;6.35;;;19.50;99.10;;;;;;5007022;28;20106;-65
2021/04/03 11:39:25;;;;;;;11.18;6.00;;;19.70;98.90;;;;;;5001827;28;20037;-65
2021/04/03 11:41:50;;;;;;;8.77;6.00;;;19.50;98.70;;;;;;5010271;28;20093;-65
2021/04/03 11:44:16;;;;;;;7.93;5.95;;;19.80;98.10;;;;;;5002111;28;20031;-65
2021/04/03 11:46:42;;;;;;;8.38;6.07;;;19.70;97.90;;;;;;5011093;28;20068;-65
2021/04/03 11:49:07;;;;;;;17.20;6.20;;;19.80;98.60;;;;;;5003908;28;20034;-65
2021/04/03 11:51:33;;;;;;;9.80;6.28;;;19.80;98.40;;;;;;5009745;28;20060;-65
2021/04/03 11:53:59;;;;;;;9.35;6.40;;;19.90;97.60;;;;;;5008124;28;20026;-65
2021/04/03 11:56:25;;;;;;;12.48;5.95;;;20.20;97.20;;;;;;5015966;28;20078;-65
2021/04/03 11:58:50;;;;;;;10.45;5.35;;;20.10;97.10;;;;;;5005505;28;20053;-65
2021/04/03 12:01:16;;;;;;;12.95;5.45;;;20.20;97.20;;;;;;5021492;28;20053;-66
2021/04/03 12:03:42;;;;;;;8.85;5.50;;;20.00;97.30;;;;;;5011331;28;20033;-65
2021/04/03 12:06:07;;;;;;;13.85;6.35;;;20.10;97.40;;;;;;5011429;28;20038;-65
2021/04/03 12:08:33;;;;;;;13.10;5.70;;;20.00;96.70;;;;;;5004737;28;20034;-65
2021/04/03 12:10:59;;;;;;;13.25;6.30;;;20.40;96.80;;;;;;5016321;28;20045;-65
2021/04/03 12:13:26;;;;;;;11.38;5.13;;;20.10;96.30;;;;;;5013518;28;20114;-65
2021/04/03 12:15:53;;;;;;;12.75;5.60;;;20.30;96.30;;;;;;5023471;28;20022;-65
2021/04/03 12:18:19;;;;;;;11.65;5.15;;;20.20;96.10;;;;;;5012161;28;20034;-65
2021/04/03 12:20:45;;;;;;;11.10;5.55;;;20.40;97.00;;;;;;5021900;28;20029;-65
2021/04/03 12:23:11;;;;;;;11.73;5.50;;;20.70;95.80;;;;;;5011865;28;20052;-65
2021/04/03 12:25:37;;;;;;;12.00;6.07;;;20.90;96.00;;;;;;5021667;28;20478;-65
2021/04/03 12:28:03;;;;;;;9.93;4.80;;;20.80;96.30;;;;;;5014795;28;20109;-65
2021/04/03 12:30:29;;;;;;;10.60;4.82;;;21.20;95.50;;;;;;5003908;28;20131;-65
2021/04/03 12:32:55;;;;;;;9.50;4.78;;;21.50;94.60;;;;;;5004805;28;20163;-65
2021/04/03 12:35:21;;;;;;;7.82;4.50;;;21.30;94.70;;;;;;5019175;28;20065;-62
2021/04/03 12:37:46;;;;;;;12.20;4.40;;;21.70;95.20;;;;;;5013861;28;20029;-63